LOC: 26.09.2016 15:10:25
UTC: 26.09.2016 12:10:25
ilmateenistus.ee keskkonnaagentuur.ee
EETN Tallinn
FTEO31 EETN 261100
TAF EETN 261125Z 2612/2712 24008KT 9999 SCT020 PROB40 TEMPO 2619/2621
    1200 BCFG BR BKN003 PROB40 TEMPO 2621/2707 0500 BCFG BKN002=

METAR EETN 261150Z 26008KT 9999 SCT022 17/12 Q1026 NOSIG=
Tallinn
EEKA Kärdla
FCEO32 EETN 261200
TAF EEKA 261200Z 2613/2619 23006KT 9999 SCT030=

METAR EEKA 261150Z 22006KT 9999 FEW030 19/11 Q1026=
Kärdla
EEKE Kuressaare
METAR EEKE 261150Z 23007KT 200V270 9999 FEW020 17/14 Q1027=
Kuressaare
EEPU Pärnu
METAR EEPU 261150Z 19008KT 140V220 9999 SCT012 17/13 Q1026=
Pärnu
EETU Tartu
FCEO32 EETN 261100
TAF EETU 261100Z 2612/2618 23006KT 9999 SCT030=

METAR EETU 261150Z VRB03KT 9999 SCT033 FEW043 17/07 Q1026=
Tartu

News

Duty Forecaster: 666 0932 aviamet@envir.ee